Time;durP1;ratioP1;P1;durP2;ratioP2;P2;SDS_P1;SDS_P2;PMS_P1;PMS_P2;Temp;Humidity;BMP_temperature;BMP_pressure;BME280_temperature;BME280_humidity;BME280_pressure;Samples;Min_cycle;Max_cycle;Signal;HPM_P1;HPM_P2
2021/11/01 00:02:05;;;;;;;1.13;0.70;;;;;;;;;;5118045;28;20218;-64
2021/11/01 00:04:34;;;;;;;1.33;0.73;;;;;;;;;;5117949;28;20209;-64
2021/11/01 00:07:02;;;;;;;1.10;0.60;;;;;;;;;;5117718;28;20205;-64
2021/11/01 00:09:30;;;;;;;0.87;0.40;;;;;;;;;;5117521;28;20593;-64
2021/11/01 00:11:59;;;;;;;2.10;0.53;;;;;;;;;;5117549;28;20207;-65
2021/11/01 00:14:27;;;;;;;1.03;0.50;;;;;;;;;;5118151;28;20292;-64
2021/11/01 00:16:55;;;;;;;0.80;0.60;;;;;;;;;;5117565;28;20573;-65
2021/11/01 00:19:24;;;;;;;0.77;0.30;;;;;;;;;;5117869;28;20228;-65
2021/11/01 00:21:52;;;;;;;2.00;0.53;;;;;;;;;;5117537;28;20608;-65
2021/11/01 00:24:20;;;;;;;0.87;0.70;;;;;;;;;;5117718;28;20204;-66
2021/11/01 00:26:48;;;;;;;1.10;0.60;;;;;;;;;;5117527;28;20205;-66
2021/11/01 00:29:17;;;;;;;0.63;0.50;;;;;;;;;;5117448;28;20228;-67
2021/11/01 00:31:45;;;;;;;2.00;0.60;;;;;;;;;;5117915;28;20288;-67
2021/11/01 00:34:13;;;;;;;1.60;0.70;;;;;;;;;;5121345;28;20264;-67
2021/11/01 00:36:41;;;;;;;2.17;0.73;;;;;;;;;;5121603;28;20209;-66
2021/11/01 00:39:09;;;;;;;0.40;0.40;;;;;;;;;;5121008;27;20782;-67
2021/11/01 00:41:37;;;;;;;1.47;0.57;;;;;;;;;;5121237;28;20212;-67
2021/11/01 00:44:05;;;;;;;0.50;0.37;;;;;;;;;;5121233;28;20567;-68
2021/11/01 00:46:35;;;;;;;0.43;0.40;;;;;;;;;;5121482;27;20283;-68
2021/11/01 00:49:04;;;;;;;1.40;0.70;;;;;;;;;;5121169;28;20315;-69
2021/11/01 00:51:36;;;;;;;2.23;0.70;;;;;;;;;;5121182;28;20209;-69
2021/11/01 00:54:04;;;;;;;0.87;0.50;;;;;;;;;;5120734;28;20629;-69
2021/11/01 00:56:32;;;;;;;1.13;0.40;;;;;;;;;;5120863;28;20563;-69
2021/11/01 00:59:00;;;;;;;1.77;0.60;;;;;;;;;;5120788;28;20220;-69
2021/11/01 01:01:28;;;;;;;5.93;0.67;;;;;;;;;;5121155;28;20287;-70
2021/11/01 01:03:58;;;;;;;1.00;0.70;;;;;;;;;;5120571;28;20201;-69
2021/11/01 01:06:26;;;;;;;1.90;1.00;;;;;;;;;;5120666;28;20307;-70
2021/11/01 01:08:54;;;;;;;1.23;0.53;;;;;;;;;;5120243;28;20229;-70
2021/11/01 01:11:22;;;;;;;0.40;0.40;;;;;;;;;;5120895;27;20715;-71
2021/11/01 01:13:52;;;;;;;1.33;0.50;;;;;;;;;;5120691;28;20240;-70
2021/11/01 01:16:25;;;;;;;1.07;0.60;;;;;;;;;;5120980;28;20205;-70
2021/11/01 01:18:56;;;;;;;4.17;0.70;;;;;;;;;;5120364;28;20316;-69
2021/11/01 01:24:12;;;;;;;0.63;0.47;;;;;;;;;;5120628;28;20215;-70
2021/11/01 01:26:39;;;;;;;0.60;0.50;;;;;;;;;;5120725;28;20568;-69
2021/11/01 01:29:11;;;;;;;1.30;0.60;;;;;;;;;;5120484;27;20225;-70
2021/11/01 01:31:41;;;;;;;1.97;0.63;;;;;;;;;;5120597;28;20215;-70
2021/11/01 01:34:10;;;;;;;0.50;0.50;;;;;;;;;;5120640;28;20207;-71
2021/11/01 01:36:39;;;;;;;1.23;0.43;;;;;;;;;;5120307;28;20291;-70
2021/11/01 01:39:07;;;;;;;0.20;0.20;;;;;;;;;;5120206;28;20316;-69
2021/11/01 01:41:36;;;;;;;1.63;0.50;;;;;;;;;;5120406;28;20250;-68
2021/11/01 01:44:04;;;;;;;1.63;0.50;;;;;;;;;;5120248;28;20231;-69
2021/11/01 01:46:32;;;;;;;2.47;0.40;;;;;;;;;;5119765;28;20205;-69
2021/11/01 01:49:00;;;;;;;2.83;0.70;;;;;;;;;;5120044;28;20237;-68
2021/11/01 01:51:29;;;;;;;0.70;0.60;;;;;;;;;;5120173;28;20291;-67
2021/11/01 01:54:00;;;;;;;1.93;0.60;;;;;;;;;;5119488;28;20211;-68
2021/11/01 01:56:28;;;;;;;0.67;0.53;;;;;;;;;;5119734;28;20715;-68
2021/11/01 01:59:03;;;;;;;0.50;0.50;;;;;;;;;;5119717;28;20729;-68
2021/11/01 02:01:33;;;;;;;3.10;0.30;;;;;;;;;;5117960;28;20570;-67
2021/11/01 02:04:02;;;;;;;0.47;0.47;;;;;;;;;;5119785;28;20209;-67
2021/11/01 02:06:35;;;;;;;1.60;0.50;;;;;;;;;;5119788;28;20287;-67
2021/11/01 02:09:08;;;;;;;1.07;0.60;;;;;;;;;;5118947;27;20315;-67
2021/11/01 02:11:38;;;;;;;0.40;0.40;;;;;;;;;;5119563;28;20292;-67
2021/11/01 02:14:12;;;;;;;3.87;0.80;;;;;;;;;;5119590;28;20283;-67
2021/11/01 02:16:41;;;;;;;2.57;0.50;;;;;;;;;;5119790;28;20201;-66
2021/11/01 02:19:11;;;;;;;1.37;0.60;;;;;;;;;;5119732;28;20254;-65
2021/11/01 02:21:46;;;;;;;0.43;0.43;;;;;;;;;;5119432;28;20292;-65
2021/11/01 02:24:18;;;;;;;1.60;0.67;;;;;;;;;;5119193;28;20208;-65
2021/11/01 02:26:48;;;;;;;1.73;0.80;;;;;;;;;;5119258;28;20566;-64
2021/11/01 02:29:16;;;;;;;0.43;0.43;;;;;;;;;;5119470;28;20225;-64
2021/11/01 02:31:45;;;;;;;0.47;0.30;;;;;;;;;;5119327;28;20205;-64
2021/11/01 02:34:13;;;;;;;1.17;0.70;;;;;;;;;;5119370;28;20205;-64
2021/11/01 02:36:44;;;;;;;0.87;0.60;;;;;;;;;;5119150;27;20230;-64
2021/11/01 02:39:12;;;;;;;2.23;0.60;;;;;;;;;;5118614;28;20247;-64
2021/11/01 02:41:41;;;;;;;0.60;0.60;;;;;;;;;;5119139;28;20264;-64
2021/11/01 02:44:11;;;;;;;0.57;0.47;;;;;;;;;;5119275;28;20268;-64
2021/11/01 02:46:39;;;;;;;1.30;0.50;;;;;;;;;;5118896;28;20747;-64
2021/11/01 02:49:07;;;;;;;1.87;0.80;;;;;;;;;;5118662;28;20228;-64
2021/11/01 02:51:35;;;;;;;2.57;0.60;;;;;;;;;;5119216;28;20204;-64
2021/11/01 02:54:04;;;;;;;1.60;0.60;;;;;;;;;;5118746;28;20215;-64
2021/11/01 02:56:32;;;;;;;2.23;0.63;;;;;;;;;;5117736;28;20201;-64
2021/11/01 02:59:01;;;;;;;1.80;0.77;;;;;;;;;;5118697;28;20217;-64
2021/11/01 03:01:30;;;;;;;1.07;0.80;;;;;;;;;;5118622;28;20642;-64
2021/11/01 03:03:59;;;;;;;2.13;0.90;;;;;;;;;;5118873;28;20209;-64
2021/11/01 03:06:27;;;;;;;1.87;0.60;;;;;;;;;;5118823;28;20295;-64
2021/11/01 03:08:56;;;;;;;1.80;0.83;;;;;;;;;;5118010;28;20661;-64
2021/11/01 03:11:25;;;;;;;1.30;0.70;;;;;;;;;;5118897;28;20212;-64
2021/11/01 03:13:53;;;;;;;2.10;0.90;;;;;;;;;;5118688;28;20220;-64
2021/11/01 03:16:23;;;;;;;2.43;0.57;;;;;;;;;;5118393;28;20283;-64
2021/11/01 03:19:03;;;;;;;1.33;0.70;;;;;;;;;;5118014;28;20686;-64
2021/11/01 03:21:32;;;;;;;1.47;0.57;;;;;;;;;;5117159;28;20295;-64
2021/11/01 03:24:01;;;;;;;3.20;0.57;;;;;;;;;;5117858;28;20209;-64
2021/11/01 03:26:30;;;;;;;3.37;1.00;;;;;;;;;;5118391;28;20207;-64
2021/11/01 03:28:59;;;;;;;0.60;0.60;;;;;;;;;;5118314;28;20225;-64
2021/11/01 03:31:27;;;;;;;4.37;0.90;;;;;;;;;;5118285;28;20207;-64
2021/11/01 03:33:57;;;;;;;0.60;0.60;;;;;;;;;;5118179;28;20270;-64
2021/11/01 03:36:26;;;;;;;1.87;0.80;;;;;;;;;;5118011;28;20738;-64
2021/11/01 03:38:56;;;;;;;1.87;1.10;;;;;;;;;;5117603;28;20307;-64
2021/11/01 03:41:26;;;;;;;2.00;0.80;;;;;;;;;;5118183;28;20205;-64
2021/11/01 03:43:58;;;;;;;0.80;0.80;;;;;;;;;;5118057;28;20201;-64
2021/11/01 03:46:33;;;;;;;3.10;0.73;;;;;;;;;;5117854;28;20734;-63
2021/11/01 03:49:05;;;;;;;1.53;0.60;;;;;;;;;;5117924;28;20228;-64
2021/11/01 03:51:44;;;;;;;1.53;0.83;;;;;;;;;;5118093;28;20287;-64
2021/11/01 03:54:13;;;;;;;1.40;0.60;;;;;;;;;;5117933;28;20214;-64
2021/11/01 03:56:42;;;;;;;2.83;0.70;;;;;;;;;;5117685;28;20557;-63
2021/11/01 03:59:11;;;;;;;0.97;0.60;;;;;;;;;;5114310;28;20786;-64
2021/11/01 04:01:40;;;;;;;0.97;0.50;;;;;;;;;;5117831;28;20207;-64
2021/11/01 04:04:10;;;;;;;1.10;0.77;;;;;;;;;;5117684;28;20196;-64
2021/11/01 04:06:40;;;;;;;1.73;1.00;;;;;;;;;;5117668;28;20682;-64
2021/11/01 04:09:08;;;;;;;1.93;0.63;;;;;;;;;;5120378;28;20309;-63
2021/11/01 04:11:36;;;;;;;1.37;0.77;;;;;;;;;;5122018;27;20264;-63
2021/11/01 04:14:10;;;;;;;1.40;1.30;;;;;;;;;;5121991;28;20204;-64
2021/11/01 04:16:41;;;;;;;3.80;0.60;;;;;;;;;;5121529;28;20291;-64
2021/11/01 04:19:32;;;;;;;2.20;0.80;;;;;;;;;;5121720;28;20707;-64
2021/11/01 04:22:01;;;;;;;1.67;1.10;;;;;;;;;;5121636;28;20276;-64
2021/11/01 04:24:30;;;;;;;1.60;0.50;;;;;;;;;;5121255;28;20694;-63
2021/11/01 04:27:00;;;;;;;0.80;0.47;;;;;;;;;;5121749;28;20204;-64
2021/11/01 04:29:31;;;;;;;0.60;0.50;;;;;;;;;;5121779;28;22642;-64
2021/11/01 04:32:10;;;;;;;1.10;0.67;;;;;;;;;;5121639;27;20207;-64
2021/11/01 04:34:42;;;;;;;0.60;0.60;;;;;;;;;;5121326;28;20579;-64
2021/11/01 04:37:10;;;;;;;0.70;0.67;;;;;;;;;;5121379;28;20575;-64
2021/11/01 04:39:46;;;;;;;0.67;0.67;;;;;;;;;;5120891;28;20250;-64
2021/11/01 04:42:45;;;;;;;0.40;0.40;;;;;;;;;;5121689;28;20214;-64
2021/11/01 04:53:38;;;;;;;5.37;4.77;;;;;;;;;;5120732;28;20205;-64
2021/11/01 04:56:06;;;;;;;4.83;3.67;;;;;;;;;;5121488;28;20279;-64
2021/11/01 04:58:36;;;;;;;5.63;3.60;;;;;;;;;;5120809;27;20305;-63
2021/11/01 05:01:04;;;;;;;3.27;2.97;;;;;;;;;;5121239;28;20207;-64
2021/11/01 05:03:36;;;;;;;2.90;2.10;;;;;;;;;;5120884;28;20209;-64
2021/11/01 05:06:07;;;;;;;3.17;2.37;;;;;;;;;;5120860;28;20296;-64
2021/11/01 05:08:41;;;;;;;3.73;2.70;;;;;;;;;;5120341;28;20709;-64
2021/11/01 05:11:20;;;;;;;1.80;1.47;;;;;;;;;;5120876;27;20231;-64
2021/11/01 05:13:48;;;;;;;1.00;1.00;;;;;;;;;;5120733;28;20211;-63
2021/11/01 05:16:23;;;;;;;0.63;0.63;;;;;;;;;;5121002;28;20212;-64
2021/11/01 05:19:01;;;;;;;1.10;0.60;;;;;;;;;;5120399;28;20252;-63
2021/11/01 05:21:37;;;;;;;3.23;0.60;;;;;;;;;;5120117;28;20212;-63
2021/11/01 05:24:08;;;;;;;1.03;0.60;;;;;;;;;;5120399;28;20288;-64
2021/11/01 05:26:53;;;;;;;2.77;0.60;;;;;;;;;;5120686;28;20215;-64
2021/11/01 05:29:22;;;;;;;0.47;0.43;;;;;;;;;;5120636;27;20284;-63
2021/11/01 05:31:56;;;;;;;1.33;0.60;;;;;;;;;;5120136;28;20224;-63
2021/11/01 05:34:24;;;;;;;0.73;0.47;;;;;;;;;;5120324;28;20292;-65
2021/11/01 05:36:54;;;;;;;0.93;0.70;;;;;;;;;;5120082;28;20296;-64
2021/11/01 05:39:22;;;;;;;0.50;0.50;;;;;;;;;;5119871;28;20307;-64
2021/11/01 05:41:50;;;;;;;0.73;0.53;;;;;;;;;;5120454;28;20201;-64
2021/11/01 05:44:18;;;;;;;0.70;0.60;;;;;;;;;;5120226;27;20288;-64
2021/11/01 05:46:50;;;;;;;0.93;0.60;;;;;;;;;;5120194;28;20588;-64
2021/11/01 05:49:20;;;;;;;1.00;0.60;;;;;;;;;;5120263;28;20224;-63
2021/11/01 05:51:48;;;;;;;0.53;0.40;;;;;;;;;;5120306;28;20581;-63
2021/11/01 05:54:20;;;;;;;0.57;0.50;;;;;;;;;;5120031;28;20208;-63
2021/11/01 05:56:53;;;;;;;1.70;0.80;;;;;;;;;;5120033;28;20197;-62
2021/11/01 05:59:45;;;;;;;0.60;0.60;;;;;;;;;;5119946;28;20303;-64
2021/11/01 06:05:06;;;;;;;4.40;2.40;;;;;;;;;;5119640;28;20273;-65
2021/11/01 06:07:42;;;;;;;2.10;0.80;;;;;;;;;;5118666;28;20622;-64
2021/11/01 06:10:23;;;;;;;1.50;0.70;;;;;;;;;;5121931;27;20333;-65
2021/11/01 06:15:37;;;;;;;0.77;0.60;;;;;;;;;;5119487;27;20284;-65
2021/11/01 06:18:05;;;;;;;1.60;0.67;;;;;;;;;;5118516;28;20324;-65
2021/11/01 06:20:33;;;;;;;1.63;0.70;;;;;;;;;;5120174;27;20227;-65
2021/11/01 06:23:01;;;;;;;2.30;0.80;;;;;;;;;;5120612;27;20283;-64
2021/11/01 06:25:30;;;;;;;1.80;0.80;;;;;;;;;;5120840;27;20637;-64
2021/11/01 06:27:59;;;;;;;1.70;0.80;;;;;;;;;;5119068;27;20221;-64
2021/11/01 06:30:30;;;;;;;1.00;0.60;;;;;;;;;;5119503;27;20265;-64
2021/11/01 06:33:16;;;;;;;1.57;0.70;;;;;;;;;;5118239;28;20739;-64
2021/11/01 06:55:07;;;;;;;1.53;0.87;;;;;;;;;;5090165;28;20284;-65
2021/11/01 06:57:44;;;;;;;2.10;0.40;;;;;;;;;;5105957;28;20256;-65
2021/11/01 07:16:55;;;;;;;1.40;0.67;;;;;;;;;;5118104;28;20580;-65
2021/11/01 07:19:31;;;;;;;2.80;0.80;;;;;;;;;;5118251;28;20304;-65
2021/11/01 08:17:44;;;;;;;7.37;1.10;;;;;;;;;;5138017;27;20301;-64
2021/11/01 08:23:13;;;;;;;2.40;0.90;;;;;;;;;;5137719;27;20287;-64
2021/11/01 08:28:59;;;;;;;4.63;1.10;;;;;;;;;;5131461;27;20217;-63
2021/11/01 08:40:03;;;;;;;2.07;0.90;;;;;;;;;;5105064;28;20228;-64
2021/11/01 08:48:34;;;;;;;1.90;1.27;;;;;;;;;;5102945;28;20288;-64
2021/11/01 08:51:33;;;;;;;1.67;1.37;;;;;;;;;;5104904;28;20197;-65
2021/11/01 09:05:40;;;;;;;0.90;0.80;;;;;;;;;;5072774;28;20202;-66
2021/11/01 09:18:42;;;;;;;10.73;4.93;;;;;;;;;;5082300;28;20237;-65
2021/11/01 09:25:10;;;;;;;2.77;1.37;;;;;;;;;;5107464;28;20198;-66
2021/11/01 09:27:41;;;;;;;3.30;1.13;;;;;;;;;;5107773;28;20207;-66
2021/11/01 09:35:54;;;;;;;4.77;1.97;;;;;;;;;;5104916;28;20276;-66
2021/11/01 09:41:08;;;;;;;3.57;1.30;;;;;;;;;;5107295;28;20239;-66
2021/11/01 09:43:38;;;;;;;2.63;1.00;;;;;;;;;;5106833;28;20629;-66
2021/11/01 09:46:09;;;;;;;4.00;1.10;;;;;;;;;;5108279;28;20197;-66
2021/11/01 09:48:38;;;;;;;2.40;1.47;;;;;;;;;;5119778;28;20225;-67
2021/11/01 09:51:06;;;;;;;1.93;1.00;;;;;;;;;;5115714;28;20272;-66
2021/11/01 09:53:40;;;;;;;1.50;1.10;;;;;;;;;;5107234;28;20217;-66
2021/11/01 09:56:20;;;;;;;2.63;1.13;;;;;;;;;;5109946;28;20277;-66
2021/11/01 10:01:35;;;;;;;2.53;1.00;;;;;;;;;;5119752;28;20265;-66
2021/11/01 10:04:04;;;;;;;2.43;1.23;;;;;;;;;;5111256;28;20236;-66
2021/11/01 10:06:32;;;;;;;2.63;0.97;;;;;;;;;;5106546;28;20288;-66
2021/11/01 10:09:01;;;;;;;3.17;1.27;;;;;;;;;;5104026;28;20313;-66
2021/11/01 10:11:30;;;;;;;2.33;1.07;;;;;;;;;;5111954;28;20280;-65
2021/11/01 10:14:00;;;;;;;3.17;1.60;;;;;;;;;;5119325;28;20346;-65
2021/11/01 10:19:25;;;;;;;1.63;1.10;;;;;;;;;;5119355;28;20287;-65
2021/11/01 10:21:55;;;;;;;5.23;1.33;;;;;;;;;;5118971;28;20690;-65
2021/11/01 10:24:25;;;;;;;2.47;1.70;;;;;;;;;;5118796;28;20201;-65
2021/11/01 10:26:54;;;;;;;3.10;1.10;;;;;;;;;;5119226;28;20287;-65
2021/11/01 10:29:24;;;;;;;3.03;0.77;;;;;;;;;;5119132;28;20263;-65
2021/11/01 10:31:52;;;;;;;0.83;0.60;;;;;;;;;;5118971;28;20223;-65
2021/11/01 10:34:26;;;;;;;3.70;0.87;;;;;;;;;;5119165;28;20209;-66
2021/11/01 10:36:57;;;;;;;4.37;1.20;;;;;;;;;;5118897;28;20200;-65
2021/11/01 10:39:26;;;;;;;3.90;1.13;;;;;;;;;;5118943;28;20311;-65
2021/11/01 10:41:58;;;;;;;2.70;0.90;;;;;;;;;;5118665;28;20755;-66
2021/11/01 10:44:50;;;;;;;2.37;0.87;;;;;;;;;;5120633;27;20210;-65
2021/11/01 10:47:55;;;;;;;1.27;0.70;;;;;;;;;;5139433;27;20283;-65
2021/11/01 11:12:54;;;;;;;2.70;0.80;;;;;;;;;;5105945;28;20308;-65
2021/11/01 11:15:25;;;;;;;4.00;1.30;;;;;;;;;;5110021;28;20656;-66
2021/11/01 11:18:07;;;;;;;6.63;1.37;;;;;;;;;;5117305;28;20320;-66
2021/11/01 11:20:56;;;;;;;1.53;0.80;;;;;;;;;;5118367;28;20208;-65
2021/11/01 11:26:42;;;;;;;2.30;0.80;;;;;;;;;;5055346;28;20249;-65
2021/11/01 11:29:38;;;;;;;1.33;0.70;;;;;;;;;;5112248;28;20223;-65
2021/11/01 11:32:42;;;;;;;2.10;1.03;;;;;;;;;;5117585;28;20309;-65
2021/11/01 11:38:25;;;;;;;0.97;0.70;;;;;;;;;;5105666;28;20229;-65
2021/11/01 11:49:05;;;;;;;1.90;1.50;;;;;;;;;;5111922;28;20259;-65
2021/11/01 11:51:34;;;;;;;3.50;0.90;;;;;;;;;;5105621;28;20210;-65
2021/11/01 11:54:05;;;;;;;1.20;0.90;;;;;;;;;;5103815;28;20228;-65
2021/11/01 11:56:34;;;;;;;1.03;0.70;;;;;;;;;;5106429;28;20196;-65
2021/11/01 11:59:03;;;;;;;1.77;0.80;;;;;;;;;;5106215;28;20221;-65
2021/11/01 12:01:32;;;;;;;3.63;0.83;;;;;;;;;;5099209;28;20265;-65
2021/11/01 12:04:01;;;;;;;2.20;0.67;;;;;;;;;;5104340;28;20612;-65
2021/11/01 12:06:48;;;;;;;4.20;1.00;;;;;;;;;;5103017;28;20661;-65
2021/11/01 12:09:22;;;;;;;1.23;0.80;;;;;;;;;;5101528;28;20637;-65
2021/11/01 12:12:10;;;;;;;1.70;0.93;;;;;;;;;;5105533;28;20204;-66
2021/11/01 12:17:02;;;;;;;3.80;1.20;;;;;;;;;;5100630;28;20276;-65
2021/11/01 12:17:31;;;;;;;1.10;0.80;;;;;;;;;;5104369;28;20236;-65
2021/11/01 12:20:00;;;;;;;1.73;1.33;;;;;;;;;;5105386;28;20220;-66
2021/11/01 12:22:33;;;;;;;1.70;1.07;;;;;;;;;;5103339;28;20277;-65
2021/11/01 12:25:05;;;;;;;3.17;0.90;;;;;;;;;;5105303;28;20211;-66
2021/11/01 12:27:37;;;;;;;1.90;1.07;;;;;;;;;;5109647;28;20575;-69
2021/11/01 12:30:08;;;;;;;1.47;1.37;;;;;;;;;;5117989;28;20284;-67
2021/11/01 12:32:37;;;;;;;3.83;1.10;;;;;;;;;;5121454;28;20237;-66
2021/11/01 12:35:09;;;;;;;2.10;1.07;;;;;;;;;;5121292;28;20232;-66
2021/11/01 12:37:42;;;;;;;2.00;1.10;;;;;;;;;;5121042;27;20208;-66
2021/11/01 12:40:20;;;;;;;1.67;1.00;;;;;;;;;;5120978;27;20315;-67
2021/11/01 12:42:59;;;;;;;2.57;0.93;;;;;;;;;;5120044;28;20276;-68
2021/11/01 12:46:08;;;;;;;3.80;1.23;;;;;;;;;;5121376;28;20204;-67
2021/11/01 12:57:14;;;;;;;3.17;2.00;;;;;;;;;;5125455;27;20200;-67
2021/11/01 12:59:45;;;;;;;4.17;2.23;;;;;;;;;;5141329;27;20306;-67
2021/11/01 13:02:16;;;;;;;6.00;3.00;;;;;;;;;;5141887;27;20271;-67
2021/11/01 13:04:45;;;;;;;2.73;1.63;;;;;;;;;;5141753;27;20283;-67
2021/11/01 13:10:13;;;;;;;1.90;1.40;;;;;;;;;;5130209;27;20235;-67
2021/11/01 13:13:14;;;;;;;1.60;1.10;;;;;;;;;;5140978;27;20252;-67
2021/11/01 13:18:21;;;;;;;1.40;1.30;;;;;;;;;;5140782;27;20239;-67
2021/11/01 13:20:52;;;;;;;4.20;1.70;;;;;;;;;;5140999;27;20214;-67
2021/11/01 13:23:21;;;;;;;2.83;1.20;;;;;;;;;;5140723;27;20226;-67
2021/11/01 13:26:14;;;;;;;1.13;1.03;;;;;;;;;;5141169;27;20211;-67
2021/11/01 13:28:51;;;;;;;2.17;1.63;;;;;;;;;;5116476;27;20245;-67
2021/11/01 13:36:53;;;;;;;3.17;1.60;;;;;;;;;;5140439;27;20719;-68
2021/11/01 13:39:24;;;;;;;2.90;1.40;;;;;;;;;;5129444;27;20261;-67
2021/11/01 13:41:54;;;;;;;2.63;1.27;;;;;;;;;;5117073;28;20286;-66
2021/11/01 13:44:23;;;;;;;1.60;1.50;;;;;;;;;;5125215;27;20207;-67
2021/11/01 13:46:52;;;;;;;2.07;1.70;;;;;;;;;;5140546;27;20290;-67
2021/11/01 13:49:21;;;;;;;3.27;1.73;;;;;;;;;;5140481;27;20223;-67
2021/11/01 13:51:51;;;;;;;3.03;1.43;;;;;;;;;;5140235;27;20236;-67
2021/11/01 13:54:32;;;;;;;2.03;1.17;;;;;;;;;;5140288;27;20284;-67
2021/11/01 13:57:05;;;;;;;3.97;1.67;;;;;;;;;;5129242;27;20283;-67
2021/11/01 13:59:44;;;;;;;3.50;1.47;;;;;;;;;;5140503;27;20234;-67
2021/11/01 14:13:22;;;;;;;1.27;1.17;;;;;;;;;;5140056;27;20207;-66
2021/11/01 14:18:59;;;;;;;1.20;1.07;;;;;;;;;;5139603;27;20239;-66
2021/11/01 15:14:27;;;;;;;3.40;1.10;;;;;;;;;;5114631;28;20211;-68
2021/11/01 15:17:17;;;;;;;6.10;1.70;;;;;;;;;;5115009;28;20638;-67
2021/11/01 15:19:55;;;;;;;1.93;1.30;;;;;;;;;;5114966;28;20224;-67
2021/11/01 15:22:52;;;;;;;2.97;1.43;;;;;;;;;;5114652;28;20234;-68
2021/11/01 15:31:47;;;;;;;3.00;1.40;;;;;;;;;;5094488;28;20208;-67
2021/11/01 15:34:32;;;;;;;3.30;1.53;;;;;;;;;;5104357;28;20205;-67
2021/11/01 16:16:26;;;;;;;3.00;1.90;;;;;;;;;;5100179;28;20660;-66
2021/11/01 16:18:55;;;;;;;5.03;3.07;;;;;;;;;;5100266;28;20633;-66
2021/11/01 16:21:23;;;;;;;3.07;1.83;;;;;;;;;;5105162;28;20220;-65
2021/11/01 16:23:51;;;;;;;3.67;1.63;;;;;;;;;;5099957;28;20212;-66
2021/11/01 16:26:25;;;;;;;2.07;1.50;;;;;;;;;;5099758;28;20206;-66
2021/11/01 16:28:58;;;;;;;3.17;2.10;;;;;;;;;;5096680;28;20265;-66
2021/11/01 16:31:45;;;;;;;3.77;2.10;;;;;;;;;;5099863;28;20190;-66
2021/11/01 16:34:16;;;;;;;2.53;2.10;;;;;;;;;;5099803;28;20212;-66
2021/11/01 16:39:46;;;;;;;6.47;3.20;;;;;;;;;;5090941;28;20218;-65
2021/11/01 16:42:16;;;;;;;6.27;2.90;;;;;;;;;;5110839;28;20274;-66
2021/11/01 16:44:46;;;;;;;4.20;2.23;;;;;;;;;;5096799;28;20206;-68
2021/11/01 16:47:16;;;;;;;4.07;2.00;;;;;;;;;;5098441;28;20282;-68
2021/11/01 16:49:45;;;;;;;4.30;1.90;;;;;;;;;;5079459;28;20226;-68
2021/11/01 16:52:16;;;;;;;2.63;1.97;;;;;;;;;;5079021;28;20224;-67
2021/11/01 16:54:47;;;;;;;2.70;2.17;;;;;;;;;;5079419;28;20207;-68
2021/11/01 16:57:35;;;;;;;4.63;2.40;;;;;;;;;;5099557;28;20201;-68
2021/11/01 17:00:13;;;;;;;4.03;1.87;;;;;;;;;;5081690;28;20291;-67
2021/11/01 17:02:59;;;;;;;3.37;1.80;;;;;;;;;;5078895;28;20237;-68
2021/11/01 17:05:36;;;;;;;3.40;3.10;;;;;;;;;;5099152;28;20205;-68
2021/11/01 17:08:36;;;;;;;3.30;2.30;;;;;;;;;;5098699;28;20289;-68
2021/11/01 17:22:19;;;;;;;4.23;1.90;;;;;;;;;;5098856;28;20282;-65
2021/11/01 17:24:51;;;;;;;3.20;2.30;;;;;;;;;;5090560;28;20205;-65
2021/11/01 17:27:42;;;;;;;3.03;2.47;;;;;;;;;;5078969;28;20560;-66
2021/11/01 17:36:02;;;;;;;3.97;2.87;;;;;;;;;;5072680;28;20202;-66
2021/11/01 18:37:59;;;;;;;4.87;3.73;;;;;;;;;;5097005;28;20296;-67
2021/11/01 18:40:40;;;;;;;7.90;3.33;;;;;;;;;;5077580;28;20217;-67
2021/11/01 18:51:28;;;;;;;11.53;5.23;;;;;;;;;;5097227;28;20263;-65
2021/11/01 18:54:03;;;;;;;11.80;5.83;;;;;;;;;;5097028;28;20232;-65
2021/11/01 18:56:34;;;;;;;6.80;4.43;;;;;;;;;;5096317;28;20261;-66
2021/11/01 18:59:03;;;;;;;5.73;3.60;;;;;;;;;;5093042;28;20708;-65
2021/11/01 19:01:33;;;;;;;4.93;3.40;;;;;;;;;;5094145;28;20649;-65
2021/11/01 19:04:03;;;;;;;7.40;4.43;;;;;;;;;;5081091;28;20226;-65
2021/11/01 19:06:38;;;;;;;4.77;3.70;;;;;;;;;;5076742;28;20209;-65
2021/11/01 19:09:19;;;;;;;6.57;4.17;;;;;;;;;;5082452;28;20284;-65
2021/11/01 20:04:44;;;;;;;5.90;4.47;;;;;;;;;;5086100;28;20318;-67
2021/11/01 20:10:25;;;;;;;6.47;4.37;;;;;;;;;;5100284;28;20648;-67
2021/11/01 20:12:59;;;;;;;6.87;5.27;;;;;;;;;;5100235;28;20277;-67
2021/11/01 21:25:07;;;;;;;7.83;4.77;;;;;;;;;;5093132;28;20228;-66
2021/11/01 21:27:36;;;;;;;6.00;4.73;;;;;;;;;;5094135;28;20201;-66
2021/11/01 21:30:04;;;;;;;6.97;4.60;;;;;;;;;;5092910;28;20618;-66
2021/11/01 21:32:32;;;;;;;12.43;7.07;;;;;;;;;;5094465;28;20571;-66
2021/11/01 21:35:03;;;;;;;14.03;8.10;;;;;;;;;;5093316;28;20629;-65
2021/11/01 21:37:33;;;;;;;18.10;8.17;;;;;;;;;;5097085;28;20213;-66
2021/11/01 21:40:02;;;;;;;10.33;7.00;;;;;;;;;;5097572;28;20568;-69
2021/11/01 21:42:31;;;;;;;11.87;6.43;;;;;;;;;;5098798;28;20236;-67
2021/11/01 21:44:59;;;;;;;8.87;5.47;;;;;;;;;;5098172;28;20284;-67
2021/11/01 21:47:27;;;;;;;9.30;5.03;;;;;;;;;;5098596;28;20205;-67
2021/11/01 21:49:55;;;;;;;7.00;4.80;;;;;;;;;;5098473;28;20712;-67
2021/11/01 21:52:24;;;;;;;5.73;4.43;;;;;;;;;;5098749;28;20209;-67
2021/11/01 21:54:55;;;;;;;4.83;3.93;;;;;;;;;;5098539;28;20719;-67
2021/11/01 21:57:26;;;;;;;6.87;4.10;;;;;;;;;;5098575;28;20644;-67
2021/11/01 22:19:42;;;;;;;5.93;3.23;;;;;;;;;;5098793;28;20316;-67
2021/11/01 22:25:15;;;;;;;5.47;2.80;;;;;;;;;;5098152;28;20229;-68
2021/11/01 22:39:19;;;;;;;6.00;3.37;;;;;;;;;;5088875;28;20594;-67
2021/11/01 22:42:01;;;;;;;6.03;3.00;;;;;;;;;;5077884;28;20289;-67
2021/11/01 22:44:42;;;;;;;4.97;2.87;;;;;;;;;;5077342;28;20663;-67
2021/11/01 22:55:50;;;;;;;3.13;2.73;;;;;;;;;;5073116;28;20245;-67
2021/11/01 22:58:20;;;;;;;3.53;2.60;;;;;;;;;;5086958;28;20717;-67
2021/11/01 23:00:53;;;;;;;3.73;2.97;;;;;;;;;;5097420;28;20236;-67
2021/11/01 23:03:24;;;;;;;6.67;3.23;;;;;;;;;;5097523;28;20205;-67
2021/11/01 23:33:37;;;;;;;7.00;2.27;;;;;;;;;;5080982;28;20206;-67
2021/11/01 23:36:07;;;;;;;4.23;2.30;;;;;;;;;;5080994;28;20206;-67
2021/11/01 23:38:35;;;;;;;5.17;2.20;;;;;;;;;;5085480;28;20229;-67
2021/11/01 23:41:04;;;;;;;3.50;1.93;;;;;;;;;;5100199;28;20206;-67
2021/11/01 23:43:33;;;;;;;6.30;1.87;;;;;;;;;;5080820;28;20349;-67
2021/11/01 23:46:01;;;;;;;4.57;2.50;;;;;;;;;;5080800;28;20228;-67
2021/11/01 23:48:29;;;;;;;3.13;2.40;;;;;;;;;;5080716;28;20696;-67
2021/11/01 23:50:59;;;;;;;3.67;2.80;;;;;;;;;;5080534;28;20580;-67
2021/11/01 23:53:43;;;;;;;4.17;2.40;;;;;;;;;;5080638;28;20275;-67
2021/11/01 23:56:12;;;;;;;3.97;2.57;;;;;;;;;;5081311;28;20212;-67
2021/11/01 23:58:41;;;;;;;1.87;1.57;;;;;;;;;;5093129;28;20733;-67
